Time;durP1;ratioP1;P1;durP2;ratioP2;P2;SDS_P1;SDS_P2;PMS_P1;PMS_P2;Temp;Humidity;BMP_temperature;BMP_pressure;BME280_temperature;BME280_humidity;BME280_pressure;Samples;Min_cycle;Max_cycle;Signal;HPM_P1;HPM_P2
2022/04/16 00:01:27;;;;;;;10.82;6.03;;;;;;;10.50;56.35;97598.60;1630709;88;21042;-75
2022/04/16 00:03:55;;;;;;;8.50;5.78;;;;;;;10.42;56.33;97596.64;1630053;88;21086;-75
2022/04/16 00:06:22;;;;;;;12.30;7.28;;;;;;;10.34;56.70;97596.91;1627456;88;21098;-75
2022/04/16 00:08:49;;;;;;;11.55;6.08;;;;;;;10.27;57.06;97596.30;1600829;90;21051;-75
2022/04/16 00:11:17;;;;;;;11.35;5.83;;;;;;;10.20;56.79;97593.44;1627386;88;21030;-75
2022/04/16 00:13:46;;;;;;;9.53;6.22;;;;;;;10.09;56.79;97599.56;1600945;89;21067;-75
2022/04/16 00:16:12;;;;;;;8.93;6.15;;;;;;;9.98;57.16;97594.63;1633773;88;21119;-75
2022/04/16 00:18:39;;;;;;;11.08;6.80;;;;;;;9.88;57.09;97598.02;1637721;87;21046;-75
2022/04/16 00:21:06;;;;;;;10.03;6.62;;;;;;;9.78;57.73;97594.83;1637993;88;21043;-76
2022/04/16 00:23:32;;;;;;;14.90;6.83;;;;;;;9.69;57.19;97599.98;1637923;88;21053;-76
2022/04/16 00:26:00;;;;;;;9.30;6.55;;;;;;;9.59;57.43;97594.58;1638056;88;21035;-76
2022/04/16 00:28:30;;;;;;;10.00;5.78;;;;;;;9.50;57.83;97596.59;1637258;87;21084;-76
2022/04/16 00:30:57;;;;;;;9.55;6.40;;;;;;;9.43;58.43;97606.09;1637725;87;21035;-76
2022/04/16 00:33:25;;;;;;;11.57;7.42;;;;;;;9.36;58.08;97608.05;1637811;87;21413;-76
2022/04/16 00:35:52;;;;;;;12.30;7.83;;;;;;;9.30;60.63;97603.81;1637555;87;21050;-76
2022/04/16 00:38:19;;;;;;;13.22;7.60;;;;;;;9.20;62.22;97605.01;1611591;88;21081;-76
2022/04/16 00:40:46;;;;;;;11.53;7.47;;;;;;;9.16;60.35;97606.89;1632950;88;21105;-75
2022/04/16 00:43:28;;;;;;;13.90;8.05;;;;;;;9.14;59.73;97605.20;1637886;87;21038;-76
2022/04/16 00:45:56;;;;;;;11.28;7.25;;;;;;;9.13;59.58;97603.00;1637722;87;21049;-76
2022/04/16 00:48:23;;;;;;;12.33;7.80;;;;;;;9.09;59.50;97603.56;1637810;87;21006;-76
2022/04/16 00:50:54;;;;;;;16.48;8.00;;;;;;;9.08;59.60;97600.95;1635101;87;21123;-76
2022/04/16 00:53:27;;;;;;;11.50;8.33;;;;;;;9.02;59.43;97595.42;1634509;88;21048;-76
2022/04/16 00:55:54;;;;;;;11.43;7.85;;;;;;;8.97;59.65;97596.01;1625616;87;21061;-76
2022/04/16 00:58:21;;;;;;;14.38;8.30;;;;;;;8.92;59.81;97597.89;1626934;88;21057;-76
2022/04/16 01:00:47;;;;;;;14.13;8.95;;;;;;;8.84;60.06;97596.36;1625529;88;21036;-76
2022/04/16 01:03:15;;;;;;;14.30;8.18;;;;;;;8.78;59.83;97591.26;1601294;88;21001;-75
2022/04/16 01:05:41;;;;;;;12.98;8.38;;;;;;;8.74;59.87;97595.33;1601475;90;20993;-76
2022/04/16 01:08:08;;;;;;;15.13;8.20;;;;;;;8.68;59.95;97591.95;1594922;90;21041;-76
2022/04/16 01:10:35;;;;;;;16.73;8.48;;;;;;;8.59;60.79;97589.58;1588967;89;21086;-76
2022/04/16 01:13:05;;;;;;;13.10;8.05;;;;;;;8.49;60.29;97590.71;1634344;88;21024;-76
2022/04/16 01:15:32;;;;;;;12.50;7.42;;;;;;;8.42;60.44;97584.73;1631857;87;21099;-76
2022/04/16 01:18:02;;;;;;;12.85;7.42;;;;;;;8.36;60.58;97583.14;1627318;88;21083;-75
2022/04/16 01:20:38;;;;;;;11.70;7.70;;;;;;;8.29;60.64;97581.12;1607155;89;21036;-75
2022/04/16 01:23:06;;;;;;;12.05;7.65;;;;;;;8.21;60.82;97576.48;1614713;89;21513;-75
2022/04/16 01:25:36;;;;;;;13.20;7.95;;;;;;;8.15;61.17;97580.62;1614407;89;21076;-75
2022/04/16 01:28:04;;;;;;;12.05;6.65;;;;;;;8.09;62.07;97582.95;1614525;89;21040;-75
2022/04/16 01:30:31;;;;;;;12.37;6.65;;;;;;;8.06;61.44;97586.55;1614614;89;21411;-74
2022/04/16 01:32:58;;;;;;;10.82;7.35;;;;;;;8.00;61.59;97588.47;1614385;89;21025;-75
2022/04/16 01:35:24;;;;;;;11.48;7.33;;;;;;;7.96;61.56;97586.81;1614293;89;21473;-75
2022/04/16 01:37:51;;;;;;;14.40;7.70;;;;;;;7.91;64.82;97585.63;1614657;89;21051;-75
2022/04/16 01:40:20;;;;;;;15.13;8.55;;;;;;;7.86;63.18;97588.83;1614736;89;21052;-75
2022/04/16 01:42:46;;;;;;;12.23;7.97;;;;;;;7.83;63.33;97583.63;1614546;89;21080;-75
2022/04/16 01:45:17;;;;;;;14.58;7.28;;;;;;;7.79;63.05;97582.40;1603555;89;21043;-75
2022/04/16 01:47:42;;;;;;;12.98;8.05;;;;;;;7.77;62.93;97580.70;1627470;86;21012;-75
2022/04/16 01:50:11;;;;;;;13.13;7.70;;;;;;;7.76;63.72;97583.78;1600734;89;21095;-75
2022/04/16 01:52:41;;;;;;;14.43;9.15;;;;;;;7.73;63.87;97575.94;1627402;88;21074;-75
2022/04/16 01:55:08;;;;;;;12.13;8.43;;;;;;;7.73;65.00;97581.21;1600622;89;21081;-75
2022/04/16 01:57:36;;;;;;;14.83;7.90;;;;;;;7.72;63.89;97586.55;1605425;88;21054;-75
2022/04/16 02:00:07;;;;;;;15.35;9.03;;;;;;;7.65;66.21;97581.88;1614521;89;21052;-75
2022/04/16 02:02:36;;;;;;;12.75;8.40;;;;;;;7.60;66.74;97579.33;1614478;89;21024;-75
2022/04/16 02:05:06;;;;;;;12.80;7.95;;;;;;;7.58;64.69;97582.47;1614562;89;21080;-75
2022/04/16 02:07:32;;;;;;;13.88;8.55;;;;;;;7.60;64.92;97574.53;1614540;89;21394;-75
2022/04/16 02:10:00;;;;;;;12.55;7.87;;;;;;;7.59;65.41;97574.09;1614085;89;21048;-75
2022/04/16 02:12:28;;;;;;;12.58;7.90;;;;;;;7.56;64.82;97562.31;1614602;89;21454;-75
2022/04/16 02:14:54;;;;;;;12.05;8.25;;;;;;;7.52;65.38;97569.44;1614622;89;21095;-75
2022/04/16 02:17:21;;;;;;;15.63;7.78;;;;;;;7.44;65.71;97569.63;1635334;88;21050;-75
2022/04/16 02:19:48;;;;;;;11.97;8.10;;;;;;;7.37;66.89;97562.31;1656502;87;21050;-75
2022/04/16 02:22:16;;;;;;;11.97;7.53;;;;;;;7.34;65.94;97558.42;1574001;90;21117;-75
2022/04/16 02:24:46;;;;;;;10.93;7.78;;;;;;;7.35;65.11;97554.02;1609542;89;21158;-75
2022/04/16 02:27:12;;;;;;;12.85;7.20;;;;;;;7.37;64.86;97542.54;1629790;88;21520;-76
2022/04/16 02:29:38;;;;;;;10.75;6.62;;;;;;;7.39;64.81;97531.49;1644759;86;21045;-76
2022/04/16 02:32:06;;;;;;;11.10;7.40;;;;;;;7.42;64.69;97532.34;1653246;87;21088;-76
2022/04/16 02:34:33;;;;;;;9.93;7.00;;;;;;;7.42;64.69;97537.14;1653301;87;21033;-75
2022/04/16 02:36:59;;;;;;;11.97;7.28;;;;;;;7.42;65.01;97532.34;1653399;87;21367;-75
2022/04/16 02:39:26;;;;;;;10.58;6.80;;;;;;;7.45;65.09;97538.84;1654777;87;21447;-75
2022/04/16 02:41:52;;;;;;;13.68;7.53;;;;;;;7.42;64.83;97541.09;1656529;87;21006;-75
2022/04/16 02:47:08;;;;;;;14.23;6.55;;;;;;;7.38;64.71;97536.36;1656785;87;21010;-75
2022/04/16 02:49:40;;;;;;;10.78;6.55;;;;;;;7.35;65.05;97533.78;1656458;87;21106;-75
2022/04/16 02:52:08;;;;;;;12.63;7.40;;;;;;;7.33;64.48;97529.45;1654493;87;21018;-75
2022/04/16 02:54:35;;;;;;;11.00;6.55;;;;;;;7.31;65.08;97529.95;1653321;87;21116;-76
2022/04/16 02:57:03;;;;;;;12.00;6.60;;;;;;;7.25;64.56;97525.25;1653464;87;21025;-76
2022/04/16 02:59:30;;;;;;;13.08;7.37;;;;;;;7.21;65.19;97521.38;1653264;87;21120;-76
2022/04/16 03:01:56;;;;;;;12.10;7.03;;;;;;;7.17;67.34;97523.67;1621700;88;20990;-75
2022/04/16 03:04:23;;;;;;;11.35;6.92;;;;;;;7.09;65.37;97517.27;1632350;88;21445;-75
2022/04/16 03:06:50;;;;;;;9.50;6.65;;;;;;;7.06;65.21;97516.88;1656473;87;21045;-75
2022/04/16 03:09:17;;;;;;;10.23;6.30;;;;;;;7.03;65.00;97519.61;1635851;88;21449;-75
2022/04/16 03:11:44;;;;;;;14.30;7.60;;;;;;;6.98;64.90;97531.55;1656467;86;20982;-75
2022/04/16 03:19:40;;;;;;;14.07;7.30;;;;;;;6.76;66.21;97525.89;1611572;89;21095;-75
2022/04/16 03:22:07;;;;;;;12.03;7.17;;;;;;;6.70;66.60;97519.45;1611743;89;21413;-75
2022/04/16 03:24:34;;;;;;;13.00;8.48;;;;;;;6.65;66.06;97524.84;1623304;88;21026;-75
2022/04/16 03:27:00;;;;;;;10.10;7.00;;;;;;;6.63;66.15;97516.52;1625738;88;21033;-75
2022/04/16 03:29:27;;;;;;;10.88;7.45;;;;;;;6.62;66.22;97509.53;1634626;88;20953;-75
2022/04/16 03:31:54;;;;;;;12.37;7.53;;;;;;;6.57;66.31;97510.48;1637887;88;21040;-75
2022/04/16 03:34:20;;;;;;;12.13;7.67;;;;;;;6.52;66.47;97520.72;1637411;88;21077;-75
2022/04/16 03:36:47;;;;;;;11.40;7.00;;;;;;;6.49;66.17;97519.02;1593603;90;21040;-75
2022/04/16 03:39:14;;;;;;;13.88;7.42;;;;;;;6.47;66.08;97511.14;1637945;88;21043;-75
2022/04/16 03:41:41;;;;;;;14.47;7.60;;;;;;;6.45;66.00;97519.97;1593404;90;21055;-76
2022/04/16 03:44:08;;;;;;;15.95;8.08;;;;;;;6.39;66.20;97514.84;1637830;88;21067;-76
2022/04/16 03:46:34;;;;;;;10.28;7.22;;;;;;;6.31;66.16;97522.43;1592960;90;21039;-75
2022/04/16 03:49:01;;;;;;;11.68;7.55;;;;;;;6.28;66.43;97525.58;1593050;90;21003;-75
2022/04/16 03:51:28;;;;;;;11.95;7.53;;;;;;;6.25;66.20;97525.63;1593046;90;21044;-75
2022/04/16 03:53:55;;;;;;;12.18;7.45;;;;;;;6.18;66.31;97537.59;1593223;90;21023;-75
2022/04/16 04:01:51;;;;;;;16.77;7.60;;;;;;;6.00;67.57;97547.11;1637735;88;21063;-75
2022/04/16 04:04:18;;;;;;;10.90;6.97;;;;;;;5.95;67.40;97545.43;1593456;90;21481;-76
2022/04/16 04:06:44;;;;;;;16.05;9.03;;;;;;;5.97;67.32;97539.30;1637694;88;21110;-76
2022/04/16 04:09:11;;;;;;;15.60;9.50;;;;;;;6.01;67.87;97539.20;1593263;90;21406;-76
2022/04/16 04:11:38;;;;;;;13.50;7.90;;;;;;;6.07;68.17;97542.20;1592785;90;21138;-76
2022/04/16 04:14:04;;;;;;;10.72;7.65;;;;;;;6.13;68.51;97547.34;1619279;89;21038;-76
2022/04/16 04:16:31;;;;;;;11.73;7.53;;;;;;;6.16;69.37;97559.14;1615878;88;21476;-77
2022/04/16 04:18:58;;;;;;;11.78;7.42;;;;;;;6.20;69.34;97553.36;1623308;88;21358;-76
2022/04/16 04:21:24;;;;;;;12.20;7.50;;;;;;;6.23;69.57;97557.23;1611927;88;21109;-76
2022/04/16 04:23:51;;;;;;;13.00;7.47;;;;;;;6.26;70.33;97554.55;1575756;91;21032;-76
2022/04/16 04:26:17;;;;;;;14.53;7.85;;;;;;;6.28;70.55;97563.74;1597769;89;21042;-76
2022/04/16 04:28:44;;;;;;;16.20;8.10;;;;;;;6.31;70.05;97554.02;1607302;89;20988;-76
2022/04/16 04:31:10;;;;;;;12.85;8.08;;;;;;;6.39;70.06;97548.59;1606572;88;21057;-76
2022/04/16 04:33:37;;;;;;;15.20;8.63;;;;;;;6.47;69.98;97555.02;1575910;91;21031;-76
2022/04/16 04:36:04;;;;;;;14.20;8.90;;;;;;;6.51;69.87;97554.06;1597719;90;20986;-75
2022/04/16 04:38:31;;;;;;;13.60;8.40;;;;;;;6.57;69.84;97558.34;1610231;89;21083;-76
2022/04/16 04:41:00;;;;;;;15.15;8.28;;;;;;;6.59;69.49;97555.22;1593634;90;21837;-76
2022/04/16 04:43:28;;;;;;;19.87;9.58;;;;;;;6.65;69.16;97559.50;1623107;88;21038;-76
2022/04/16 04:45:55;;;;;;;17.25;9.23;;;;;;;6.73;68.95;97557.59;1636594;88;21058;-76
2022/04/16 04:48:21;;;;;;;12.45;8.25;;;;;;;6.78;68.68;97566.69;1600692;89;21044;-76
2022/04/16 04:50:48;;;;;;;13.72;8.15;;;;;;;6.89;69.13;97563.84;1606797;88;21567;-76
2022/04/16 04:53:15;;;;;;;12.90;7.90;;;;;;;7.21;68.31;97573.66;1597740;89;21097;-75
2022/04/16 04:55:41;;;;;;;12.63;7.67;;;;;;;7.39;67.50;97574.99;1610320;89;21447;-76
2022/04/16 04:58:08;;;;;;;15.65;7.97;;;;;;;7.38;67.19;97578.54;1575748;90;21293;-76
2022/04/16 05:00:35;;;;;;;12.47;7.15;;;;;;;7.36;67.02;97579.01;1597323;88;21495;-76
2022/04/16 05:03:01;;;;;;;11.12;7.00;;;;;;;7.37;67.10;97571.98;1597143;88;21041;-76
2022/04/16 05:05:28;;;;;;;11.80;7.92;;;;;;;7.40;66.89;97579.36;1596843;88;21072;-76
2022/04/16 05:07:55;;;;;;;14.30;7.12;;;;;;;7.46;66.72;97570.45;1596680;89;21053;-75
2022/04/16 05:10:22;;;;;;;13.15;7.35;;;;;;;7.50;67.08;97570.80;1583469;89;20991;-76
2022/04/16 05:12:49;;;;;;;15.35;8.20;;;;;;;7.56;66.51;97577.66;1610128;89;21081;-76
2022/04/16 05:15:15;;;;;;;16.17;8.55;;;;;;;7.59;66.37;97572.33;1627898;88;21064;-76
2022/04/16 05:17:43;;;;;;;12.90;8.23;;;;;;;7.61;66.53;97576.25;1609012;89;21016;-76
2022/04/16 05:20:12;;;;;;;12.33;7.58;;;;;;;7.63;66.99;97576.63;1614102;89;21044;-76
2022/04/16 05:22:39;;;;;;;15.72;7.83;;;;;;;7.66;66.80;97575.25;1613016;89;21084;-76
2022/04/16 05:25:07;;;;;;;13.35;8.03;;;;;;;7.71;66.41;97568.53;1613875;89;21485;-76
2022/04/16 05:27:34;;;;;;;13.80;7.87;;;;;;;7.76;66.53;97579.83;1612629;89;21048;-76
2022/04/16 05:30:07;;;;;;;12.70;7.72;;;;;;;7.82;66.04;97579.26;1614274;89;21415;-77
2022/04/16 05:32:40;;;;;;;11.55;7.37;;;;;;;7.89;65.94;97575.58;1614425;89;21070;-77
2022/04/16 05:35:09;;;;;;;12.58;7.08;;;;;;;7.96;65.65;97570.54;1613427;89;21020;-77
2022/04/16 05:37:37;;;;;;;13.85;7.33;;;;;;;8.05;65.37;97572.06;1614250;89;21029;-77
2022/04/16 05:40:05;;;;;;;11.00;7.08;;;;;;;8.16;65.27;97573.11;1614277;89;21030;-77
2022/04/16 05:42:32;;;;;;;11.45;7.92;;;;;;;8.24;65.18;97571.14;1614538;89;21507;-77
2022/04/16 05:45:01;;;;;;;11.20;7.00;;;;;;;8.34;65.00;97568.25;1601303;89;21023;-77
2022/04/16 05:47:28;;;;;;;13.50;7.25;;;;;;;8.41;64.94;97561.44;1627199;88;21051;-82
2022/04/16 05:49:55;;;;;;;10.28;7.03;;;;;;;8.50;64.78;97562.06;1601105;89;22148;-84
2022/04/16 05:52:23;;;;;;;14.40;7.80;;;;;;;8.57;64.59;97567.64;1622094;88;21010;-84
2022/04/16 05:54:51;;;;;;;12.82;7.83;;;;;;;8.65;64.45;97567.41;1614372;89;21419;-85
2022/04/16 05:57:23;;;;;;;13.75;8.33;;;;;;;8.74;64.30;97563.19;1614509;87;21483;-78
2022/04/16 05:59:50;;;;;;;14.78;8.48;;;;;;;8.82;64.38;97574.41;1614665;89;21025;-78
2022/04/16 06:02:17;;;;;;;14.58;8.65;;;;;;;8.89;64.57;97563.65;1612261;89;21493;-78
2022/04/16 06:04:44;;;;;;;15.95;9.55;;;;;;;8.94;64.09;97564.38;1627457;88;21496;-76
2022/04/16 06:07:10;;;;;;;15.25;9.65;;;;;;;9.01;64.12;97563.27;1600703;89;21514;-76
2022/04/16 06:09:37;;;;;;;12.90;9.43;;;;;;;9.07;64.11;97558.26;1610713;88;21002;-76
2022/04/16 06:12:04;;;;;;;13.45;7.85;;;;;;;9.17;63.98;97563.67;1614426;89;21471;-76
2022/04/16 06:14:32;;;;;;;16.25;9.45;;;;;;;9.27;64.07;97561.62;1611666;88;21419;-75
2022/04/16 06:16:59;;;;;;;14.30;8.55;;;;;;;9.37;63.85;97563.50;1627473;88;21496;-80
2022/04/16 06:19:26;;;;;;;11.15;8.03;;;;;;;9.46;63.70;97566.30;1609758;89;21072;-80
2022/04/16 06:21:53;;;;;;;12.98;8.70;;;;;;;9.59;63.71;97566.32;1611009;89;21037;-82
2022/04/16 06:24:20;;;;;;;16.32;8.75;;;;;;;9.71;63.54;97558.91;1612025;89;21088;-85
2022/04/16 06:26:47;;;;;;;14.98;8.93;;;;;;;9.83;63.34;97574.81;1611112;88;21096;-79
2022/04/16 06:29:15;;;;;;;10.23;7.95;;;;;;;10.00;63.50;97563.21;1612040;88;20994;-82
2022/04/16 06:31:42;;;;;;;13.15;8.93;;;;;;;10.14;63.47;97557.91;1612082;88;21064;-81
2022/04/16 06:34:09;;;;;;;14.53;9.15;;;;;;;10.27;63.59;97550.39;1611131;88;21014;-80
2022/04/16 06:36:38;;;;;;;12.10;7.92;;;;;;;10.41;63.54;97549.88;1612030;88;21506;-80
2022/04/16 06:39:05;;;;;;;12.80;6.97;;;;;;;10.53;63.24;97561.41;1607496;88;21062;-81
2022/04/16 06:41:31;;;;;;;12.55;8.33;;;;;;;10.64;63.07;97550.88;1598875;90;21055;-81
2022/04/16 06:43:58;;;;;;;12.20;8.00;;;;;;;10.78;63.06;97549.89;1598835;89;20999;-81
2022/04/16 06:46:25;;;;;;;13.68;7.92;;;;;;;10.90;62.89;97549.02;1599046;89;21103;-81
2022/04/16 06:48:51;;;;;;;10.63;7.33;;;;;;;10.99;62.89;97550.00;1612092;89;21008;-81
2022/04/16 06:51:18;;;;;;;8.78;6.47;;;;;;;11.20;63.46;97550.08;1612764;89;21027;-81
2022/04/16 06:53:44;;;;;;;10.63;6.87;;;;;;;11.39;63.67;97551.56;1612818;89;21032;-81
2022/04/16 06:56:11;;;;;;;20.57;13.00;;;;;;;11.60;63.25;97544.97;1612946;89;21036;-81
2022/04/16 06:58:37;;;;;;;10.38;6.30;;;;;;;11.76;62.88;97541.22;1611665;88;21495;-83
2022/04/16 07:01:04;;;;;;;8.68;6.75;;;;;;;11.93;62.53;97541.84;1612872;89;21060;-81
2022/04/16 07:03:31;;;;;;;8.30;6.70;;;;;;;12.04;62.30;97543.17;1612968;88;21064;-81
2022/04/16 07:05:57;;;;;;;8.90;6.30;;;;;;;12.15;61.95;97535.62;1612754;89;21044;-79
2022/04/16 07:08:25;;;;;;;8.40;6.50;;;;;;;12.28;61.65;97531.52;1603193;88;21000;-81
2022/04/16 07:10:51;;;;;;;9.43;6.33;;;;;;;12.41;61.32;97534.94;1599090;90;21473;-81
2022/04/16 07:13:17;;;;;;;8.78;5.97;;;;;;;12.53;60.70;97534.86;1599423;90;21023;-80
2022/04/16 07:15:45;;;;;;;9.93;5.80;;;;;;;12.67;60.29;97542.23;1599163;90;22178;-81
2022/04/16 07:18:12;;;;;;;8.13;5.95;;;;;;;12.80;59.95;97542.53;1598840;90;21020;-80
2022/04/16 07:20:38;;;;;;;8.15;5.65;;;;;;;12.87;59.39;97547.09;1608495;89;21461;-81
2022/04/16 07:23:05;;;;;;;7.80;5.80;;;;;;;12.89;59.10;97535.45;1592823;90;21024;-81
2022/04/16 07:25:34;;;;;;;8.53;6.50;;;;;;;12.94;59.23;97532.56;1636069;88;21055;-82
2022/04/16 07:28:01;;;;;;;10.85;5.25;;;;;;;12.98;59.09;97525.30;1638671;87;21082;-87
2022/04/16 07:30:28;;;;;;;6.87;4.85;;;;;;;13.04;58.82;97539.17;1599022;90;21032;-81
2022/04/16 07:32:54;;;;;;;7.50;5.30;;;;;;;13.12;58.71;97537.97;1599044;89;22184;-81
2022/04/16 07:35:21;;;;;;;6.42;4.75;;;;;;;13.16;58.76;97534.23;1599135;89;21022;-81
2022/04/16 07:37:48;;;;;;;7.65;4.65;;;;;;;13.22;57.58;97541.04;1613052;89;21040;-80
2022/04/16 07:40:15;;;;;;;7.40;4.62;;;;;;;13.32;57.68;97534.34;1612917;88;21072;-81
2022/04/16 07:42:41;;;;;;;6.65;4.58;;;;;;;13.44;57.49;97528.89;1612851;89;21454;-81
2022/04/16 07:45:09;;;;;;;5.83;4.30;;;;;;;13.58;57.11;97538.91;1604585;89;21032;-81
2022/04/16 07:47:36;;;;;;;6.47;4.45;;;;;;;13.68;57.47;97532.19;1599167;89;21032;-81
2022/04/16 07:50:03;;;;;;;4.33;3.85;;;;;;;13.82;57.40;97519.50;1599143;89;21512;-81
2022/04/16 07:52:29;;;;;;;8.08;5.08;;;;;;;13.98;57.09;97520.05;1601615;89;21092;-81
2022/04/16 07:54:56;;;;;;;5.95;4.30;;;;;;;14.16;55.94;97526.23;1613015;88;21442;-81
2022/04/16 07:57:22;;;;;;;4.65;3.90;;;;;;;14.23;55.41;97525.45;1613013;89;21032;-81
2022/04/16 07:59:49;;;;;;;6.15;4.60;;;;;;;14.30;54.86;97524.20;1612907;89;21116;-81
2022/04/16 08:02:16;;;;;;;27.75;17.57;;;;;;;14.34;54.60;97519.56;1611929;88;21032;-81
2022/04/16 08:04:42;;;;;;;25.17;14.53;;;;;;;14.38;55.25;97512.64;1599219;89;21020;-81
2022/04/16 08:07:09;;;;;;;7.95;5.65;;;;;;;14.48;55.32;97516.16;1599086;89;21015;-81
2022/04/16 08:09:35;;;;;;;5.47;4.67;;;;;;;14.55;55.10;97522.89;1599183;89;21059;-81
2022/04/16 08:12:03;;;;;;;6.45;4.80;;;;;;;14.59;54.56;97524.92;1599215;90;21079;-81
2022/04/16 08:14:30;;;;;;;6.03;4.58;;;;;;;14.57;53.97;97526.82;1600729;89;21115;-81
2022/04/16 08:16:57;;;;;;;5.47;4.90;;;;;;;14.52;53.24;97516.37;1613145;88;21474;-81
2022/04/16 08:19:23;;;;;;;5.47;4.58;;;;;;;14.38;53.32;97520.63;1614720;89;21041;-81
2022/04/16 08:21:50;;;;;;;6.45;5.15;;;;;;;14.40;53.95;97520.56;1614665;89;21469;-81
2022/04/16 08:24:38;;;;;;;7.95;5.10;;;;;;;14.45;54.43;97524.33;1614629;89;21033;-81
2022/04/16 08:26:51;;;;;;;6.78;4.78;;;;;;;14.48;54.55;97518.36;1587916;88;21052;-82
2022/04/16 08:29:17;;;;;;;7.97;4.30;;;;;;;14.58;53.96;97516.53;1589458;90;21080;-81
2022/04/16 08:31:44;;;;;;;6.70;4.62;;;;;;;14.62;52.42;97512.77;1589590;90;21056;-81
2022/04/16 08:34:11;;;;;;;7.67;4.85;;;;;;;14.68;53.45;97505.76;1589416;90;21446;-80
2022/04/16 08:36:37;;;;;;;5.60;4.72;;;;;;;14.83;52.50;97499.23;1600161;89;21036;-80
2022/04/16 08:39:04;;;;;;;6.58;4.85;;;;;;;14.84;51.65;97503.61;1627456;88;21118;-80
2022/04/16 08:41:32;;;;;;;6.05;4.75;;;;;;;14.84;51.49;97495.15;1600615;89;21055;-81
2022/04/16 08:43:59;;;;;;;7.33;4.65;;;;;;;15.01;52.53;97502.68;1627596;88;21079;-81
2022/04/16 08:46:32;;;;;;;8.85;4.58;;;;;;;15.24;52.31;97497.38;1600963;89;21055;-81
2022/04/16 08:49:00;;;;;;;17.57;11.85;;;;;;;15.40;50.92;97497.86;1622476;88;21063;-81
2022/04/16 08:51:28;;;;;;;5.60;4.28;;;;;;;15.53;51.43;97496.68;1616594;89;21013;-80
2022/04/16 08:53:55;;;;;;;5.78;3.85;;;;;;;15.60;49.88;97491.34;1616896;89;21024;-79
2022/04/16 08:56:23;;;;;;;6.03;4.00;;;;;;;15.63;49.88;97484.50;1616752;89;21021;-80
2022/04/16 08:58:49;;;;;;;3.80;3.40;;;;;;;15.75;48.80;97487.39;1592401;89;21016;-81
2022/04/16 09:01:16;;;;;;;6.95;4.45;;;;;;;15.71;48.38;97494.24;1618262;89;21034;-80
2022/04/16 09:03:43;;;;;;;5.40;4.45;;;;;;;15.69;49.07;97492.16;1614809;89;20989;-81
2022/04/16 09:06:09;;;;;;;4.40;3.77;;;;;;;15.66;49.28;97490.14;1618015;89;21560;-81
2022/04/16 09:08:36;;;;;;;6.12;4.50;;;;;;;15.60;49.10;97491.34;1606232;89;21071;-81
2022/04/16 09:11:10;;;;;;;4.65;3.70;;;;;;;15.50;48.81;97500.39;1627603;88;21039;-81
2022/04/16 09:13:50;;;;;;;5.03;4.20;;;;;;;15.37;48.42;97496.20;1601102;89;21043;-81
2022/04/16 09:16:17;;;;;;;5.83;4.37;;;;;;;15.17;49.14;97500.86;1627676;88;21067;-82
2022/04/16 09:18:55;;;;;;;5.58;4.33;;;;;;;15.04;49.72;97506.52;1627376;88;21063;-81
2022/04/16 09:21:28;;;;;;;6.28;5.20;;;;;;;14.85;50.26;97515.54;1614703;89;21029;-81
2022/04/16 09:24:01;;;;;;;7.65;5.95;;;;;;;14.72;50.47;97517.11;1614658;89;21044;-81
2022/04/16 09:26:39;;;;;;;9.48;7.12;;;;;;;14.67;50.80;97511.17;1614778;89;21474;-81
2022/04/16 09:29:13;;;;;;;9.28;6.95;;;;;;;14.60;51.68;97504.84;1614271;88;21052;-81
2022/04/16 09:31:46;;;;;;;7.37;5.83;;;;;;;14.55;52.12;97508.69;1614588;89;21068;-81
2022/04/16 09:34:23;;;;;;;8.48;5.97;;;;;;;14.51;53.12;97510.20;1614876;89;21088;-81
2022/04/16 09:36:54;;;;;;;8.45;6.20;;;;;;;14.48;53.18;97513.48;1614646;89;21041;-81
2022/04/16 09:39:25;;;;;;;8.10;6.28;;;;;;;14.33;54.75;97509.84;1614401;89;21071;-81
2022/04/16 09:41:51;;;;;;;7.58;6.12;;;;;;;14.29;54.52;97513.16;1614683;89;21060;-81
2022/04/16 09:44:21;;;;;;;8.28;6.05;;;;;;;14.17;56.41;97516.44;1614784;89;21454;-81
2022/04/16 09:46:50;;;;;;;7.85;5.90;;;;;;;14.12;56.70;97516.70;1614568;89;21043;-81
2022/04/16 09:49:18;;;;;;;9.13;6.28;;;;;;;14.17;57.42;97516.44;1604067;89;21418;-82
2022/04/16 09:51:48;;;;;;;7.05;6.17;;;;;;;14.18;56.69;97514.16;1627426;88;21034;-82
2022/04/16 09:54:16;;;;;;;8.33;6.03;;;;;;;14.28;56.47;97503.41;1600649;89;21023;-81
2022/04/16 09:56:48;;;;;;;8.55;5.97;;;;;;;14.39;57.06;97501.52;1617686;88;21508;-82
2022/04/16 09:59:17;;;;;;;10.50;6.35;;;;;;;14.47;56.60;97499.77;1614561;89;21016;-82
2022/04/16 10:01:49;;;;;;;6.80;5.12;;;;;;;14.54;56.33;97497.64;1614531;89;21048;-82
2022/04/16 10:04:17;;;;;;;6.70;5.40;;;;;;;14.51;55.34;97502.67;1614768;89;21080;-82
2022/04/16 10:06:48;;;;;;;7.58;6.53;;;;;;;14.52;55.42;97508.38;1609415;89;21044;-81
2022/04/16 10:09:22;;;;;;;7.92;5.45;;;;;;;14.44;55.55;97515.92;1627051;88;21106;-81
2022/04/16 10:15:07;;;;;;;8.65;7.08;;;;;;;14.26;55.38;97543.95;1627439;88;21504;-81
2022/04/16 10:17:47;;;;;;;10.10;5.70;;;;;;;14.07;55.21;97544.89;1627334;88;21046;-81
2022/04/16 10:20:20;;;;;;;9.08;6.15;;;;;;;13.96;55.21;97553.91;1591261;89;21070;-81
2022/04/16 10:22:55;;;;;;;8.50;6.20;;;;;;;13.80;55.74;97561.34;1614734;89;21461;-81
2022/04/16 10:25:35;;;;;;;7.92;6.72;;;;;;;13.63;55.85;97553.31;1614685;89;21076;-81
2022/04/16 10:28:12;;;;;;;9.00;6.80;;;;;;;13.48;57.75;97562.45;1614439;89;21016;-82
2022/04/16 10:30:54;;;;;;;12.85;7.87;;;;;;;13.10;62.23;97584.59;1613038;89;21053;-81
2022/04/16 10:33:24;;;;;;;10.90;8.13;;;;;;;12.61;68.80;97625.77;1627603;88;21066;-81
2022/04/16 10:36:01;;;;;;;14.07;9.48;;;;;;;11.27;83.51;97639.13;1627373;86;21532;-82
2022/04/16 10:38:38;;;;;;;14.15;10.32;;;;;;;10.52;87.51;97652.42;1627583;88;21071;-82
2022/04/16 10:41:20;;;;;;;14.00;10.15;;;;;;;9.96;91.51;97669.27;1621244;88;21407;-82
2022/04/16 10:43:59;;;;;;;14.07;9.93;;;;;;;9.72;91.38;97668.66;1614856;89;21025;-82
2022/04/16 10:46:46;;;;;;;14.35;10.38;;;;;;;9.55;90.33;97670.98;1614852;89;21028;-82
2022/04/16 10:49:15;;;;;;;13.75;8.83;;;;;;;9.41;93.93;97674.02;1590050;89;21426;-83
2022/04/16 10:51:43;;;;;;;16.02;11.40;;;;;;;9.22;96.50;97665.34;1614918;89;21442;-82
2022/04/16 10:54:16;;;;;;;16.57;11.30;;;;;;;9.19;95.60;97657.48;1604194;89;21039;-82
2022/04/16 10:56:53;;;;;;;17.80;11.63;;;;;;;9.23;92.89;97641.47;1627884;88;21062;-83
2022/04/16 10:59:40;;;;;;;23.57;15.65;;;;;;;9.30;92.57;97638.66;1627817;88;21062;-83
2022/04/16 11:02:28;;;;;;;18.42;12.13;;;;;;;9.38;91.04;97637.95;1612018;88;21087;-82
2022/04/16 11:05:02;;;;;;;17.00;12.00;;;;;;;9.46;91.44;97639.92;1615046;89;21438;-82
2022/04/16 11:07:31;;;;;;;17.67;11.65;;;;;;;9.50;89.45;97636.27;1615123;89;21076;-83
2022/04/16 11:09:58;;;;;;;18.20;12.65;;;;;;;9.51;90.85;97639.80;1614850;89;21489;-82
2022/04/16 11:12:25;;;;;;;15.80;11.90;;;;;;;9.54;93.95;97643.65;1614699;89;20997;-82
2022/04/16 11:14:54;;;;;;;15.95;11.95;;;;;;;9.68;94.35;97636.59;1615138;88;21084;-82
2022/04/16 11:17:22;;;;;;;17.67;13.32;;;;;;;9.90;90.80;97622.23;1615011;89;21024;-82
2022/04/16 11:20:05;;;;;;;19.42;14.63;;;;;;;10.22;89.74;97626.48;1633870;88;21082;-82
2022/04/16 11:22:36;;;;;;;18.90;12.88;;;;;;;10.65;92.09;97615.75;1636535;87;21408;-83
2022/04/16 11:25:05;;;;;;;18.42;13.98;;;;;;;10.94;95.33;97603.66;1602918;88;21059;-83
2022/04/16 11:36:00;;;;;;;16.67;13.08;;;;;;;12.45;89.17;97595.00;1636339;88;21032;-83
2022/04/16 11:38:32;;;;;;;16.80;12.98;;;;;;;12.65;89.43;97590.59;1636145;87;21036;-83
2022/04/16 11:41:01;;;;;;;15.13;12.43;;;;;;;12.86;88.28;97597.20;1626953;87;21053;-83
2022/04/16 11:43:29;;;;;;;13.72;10.90;;;;;;;13.60;87.48;97600.92;1622109;88;21046;-83
2022/04/16 11:45:59;;;;;;;13.72;11.60;;;;;;;13.58;86.25;97601.48;1622077;88;21049;-83
2022/04/16 11:48:26;;;;;;;12.10;9.80;;;;;;;13.26;86.18;97595.39;1622117;88;21070;-83
2022/04/16 11:50:53;;;;;;;15.03;11.20;;;;;;;13.09;84.92;97589.98;1630527;88;21039;-83
2022/04/16 11:53:19;;;;;;;14.80;10.00;;;;;;;12.58;83.28;97595.32;1636471;87;21348;-83
2022/04/16 11:55:50;;;;;;;12.95;10.63;;;;;;;12.38;83.79;97594.88;1636364;87;21501;-83
2022/04/16 11:58:18;;;;;;;14.33;10.70;;;;;;;12.32;83.21;97588.03;1636191;87;21047;-83
2022/04/16 12:00:57;;;;;;;12.25;9.93;;;;;;;12.11;83.44;97595.13;1629158;88;21062;-82
2022/04/16 12:03:37;;;;;;;16.02;11.25;;;;;;;12.02;83.10;97599.00;1622178;88;21059;-82